sensor_id;sensor_type;location;lat;lon;timestamp;P1;P2;P0
72307;PMS5003;60257;42.638;23.376;2024-02-16T00:00:38;30.00;29.50;13.00
72307;PMS5003;60257;42.638;23.376;2024-02-16T00:02:39;49.50;42.25;24.75
72307;PMS5003;60257;42.638;23.376;2024-02-16T00:04:40;48.00;42.50;25.75
72307;PMS5003;60257;42.638;23.376;2024-02-16T00:06:41;38.25;37.00;23.00
72307;PMS5003;60257;42.638;23.376;2024-02-16T00:08:41;49.25;42.75;25.25
72307;PMS5003;60257;42.638;23.376;2024-02-16T00:10:41;50.50;43.25;25.50
72307;PMS5003;60257;42.638;23.376;2024-02-16T00:12:42;48.25;42.75;26.00
72307;PMS5003;60257;42.638;23.376;2024-02-16T00:14:43;46.25;41.50;26.00
72307;PMS5003;60257;42.638;23.376;2024-02-16T00:16:46;41.00;38.50;21.50
72307;PMS5003;60257;42.638;23.376;2024-02-16T00:18:47;47.00;41.00;24.00
72307;PMS5003;60257;42.638;23.376;2024-02-16T00:20:48;51.75;44.00;25.00
72307;PMS5003;60257;42.638;23.376;2024-02-16T00:22:48;51.25;42.75;26.50
72307;PMS5003;60257;42.638;23.376;2024-02-16T00:24:49;53.00;39.50;23.50
72307;PMS5003;60257;42.638;23.376;2024-02-16T00:26:49;46.50;40.75;24.50
72307;PMS5003;60257;42.638;23.376;2024-02-16T00:28:49;51.00;43.00;25.25
72307;PMS5003;60257;42.638;23.376;2024-02-16T00:30:50;59.00;46.75;28.00
72307;PMS5003;60257;42.638;23.376;2024-02-16T00:32:50;48.75;43.00;25.75
72307;PMS5003;60257;42.638;23.376;2024-02-16T00:34:51;54.75;45.25;26.50
72307;PMS5003;60257;42.638;23.376;2024-02-16T00:36:54;44.50;40.25;27.50
72307;PMS5003;60257;42.638;23.376;2024-02-16T00:38:55;53.50;44.25;28.00
72307;PMS5003;60257;42.638;23.376;2024-02-16T00:40:56;51.00;42.75;26.00
72307;PMS5003;60257;42.638;23.376;2024-02-16T00:42:57;49.50;42.00;25.25
72307;PMS5003;60257;42.638;23.376;2024-02-16T00:44:57;44.00;37.50;21.25
72307;PMS5003;60257;42.638;23.376;2024-02-16T00:47:00;56.75;46.75;25.50
72307;PMS5003;60257;42.638;23.376;2024-02-16T00:49:00;56.00;45.25;27.50
72307;PMS5003;60257;42.638;23.376;2024-02-16T00:51:01;53.75;44.50;25.25
72307;PMS5003;60257;42.638;23.376;2024-02-16T00:53:01;56.25;45.50;27.00
72307;PMS5003;60257;42.638;23.376;2024-02-16T00:55:01;45.25;40.75;26.25
72307;PMS5003;60257;42.638;23.376;2024-02-16T00:57:04;50.00;42.75;22.25
72307;PMS5003;60257;42.638;23.376;2024-02-16T00:59:04;57.00;46.75;27.00
72307;PMS5003;60257;42.638;23.376;2024-02-16T01:01:05;60.00;46.75;29.25
72307;PMS5003;60257;42.638;23.376;2024-02-16T01:03:07;51.50;43.00;28.25
72307;PMS5003;60257;42.638;23.376;2024-02-16T01:05:07;39.75;37.75;20.50
72307;PMS5003;60257;42.638;23.376;2024-02-16T01:07:10;51.00;45.00;26.50
72307;PMS5003;60257;42.638;23.376;2024-02-16T01:09:10;49.25;42.00;26.00
72307;PMS5003;60257;42.638;23.376;2024-02-16T01:11:13;59.50;46.00;28.00
72307;PMS5003;60257;42.638;23.376;2024-02-16T01:13:13;49.75;42.25;26.00
72307;PMS5003;60257;42.638;23.376;2024-02-16T01:15:14;48.50;41.75;27.50
72307;PMS5003;60257;42.638;23.376;2024-02-16T01:17:14;51.75;45.00;25.50
72307;PMS5003;60257;42.638;23.376;2024-02-16T01:19:14;44.00;37.00;26.00
72307;PMS5003;60257;42.638;23.376;2024-02-16T01:21:15;51.00;43.50;26.00
72307;PMS5003;60257;42.638;23.376;2024-02-16T01:23:15;54.50;46.50;27.75
72307;PMS5003;60257;42.638;23.376;2024-02-16T01:25:15;51.75;43.25;28.25
72307;PMS5003;60257;42.638;23.376;2024-02-16T01:27:16;51.75;44.25;26.00
72307;PMS5003;60257;42.638;23.376;2024-02-16T01:29:16;51.00;43.75;28.00
72307;PMS5003;60257;42.638;23.376;2024-02-16T01:31:17;54.00;43.50;28.00
72307;PMS5003;60257;42.638;23.376;2024-02-16T01:33:17;49.00;42.00;23.50
72307;PMS5003;60257;42.638;23.376;2024-02-16T01:35:18;50.25;44.75;27.00
72307;PMS5003;60257;42.638;23.376;2024-02-16T01:37:18;53.00;43.50;25.00
72307;PMS5003;60257;42.638;23.376;2024-02-16T01:39:18;46.50;42.25;24.75
72307;PMS5003;60257;42.638;23.376;2024-02-16T01:41:19;47.50;41.25;23.25
72307;PMS5003;60257;42.638;23.376;2024-02-16T01:43:20;50.50;42.25;24.50
72307;PMS5003;60257;42.638;23.376;2024-02-16T01:45:20;50.00;44.00;25.50
72307;PMS5003;60257;42.638;23.376;2024-02-16T01:47:21;46.50;41.50;26.00
72307;PMS5003;60257;42.638;23.376;2024-02-16T01:49:22;59.00;48.25;26.75
72307;PMS5003;60257;42.638;23.376;2024-02-16T01:51:23;52.25;43.50;26.25
72307;PMS5003;60257;42.638;23.376;2024-02-16T01:53:25;51.50;43.75;29.00
72307;PMS5003;60257;42.638;23.376;2024-02-16T01:55:27;42.25;37.50;25.25
72307;PMS5003;60257;42.638;23.376;2024-02-16T01:57:27;54.50;44.50;28.25
72307;PMS5003;60257;42.638;23.376;2024-02-16T01:59:28;51.50;42.50;27.25
72307;PMS5003;60257;42.638;23.376;2024-02-16T02:01:29;45.00;37.75;18.00
72307;PMS5003;60257;42.638;23.376;2024-02-16T02:03:30;52.00;42.00;26.00
72307;PMS5003;60257;42.638;23.376;2024-02-16T02:05:31;51.00;39.00;26.75
72307;PMS5003;60257;42.638;23.376;2024-02-16T02:07:31;47.50;41.75;26.00
72307;PMS5003;60257;42.638;23.376;2024-02-16T02:09:33;46.25;40.00;25.75
72307;PMS5003;60257;42.638;23.376;2024-02-16T02:11:33;54.00;43.00;26.00
72307;PMS5003;60257;42.638;23.376;2024-02-16T02:13:34;44.50;39.50;24.00
72307;PMS5003;60257;42.638;23.376;2024-02-16T02:15:34;23.25;21.25;14.75
72307;PMS5003;60257;42.638;23.376;2024-02-16T02:17:35;47.00;39.75;22.25
72307;PMS5003;60257;42.638;23.376;2024-02-16T02:19:35;44.00;38.75;21.75
72307;PMS5003;60257;42.638;23.376;2024-02-16T02:21:36;37.25;34.00;20.75
72307;PMS5003;60257;42.638;23.376;2024-02-16T02:23:36;46.00;41.00;24.25
72307;PMS5003;60257;42.638;23.376;2024-02-16T02:25:36;32.50;28.25;20.50
72307;PMS5003;60257;42.638;23.376;2024-02-16T02:27:37;40.00;37.50;24.75
72307;PMS5003;60257;42.638;23.376;2024-02-16T02:29:38;43.75;35.25;22.00
72307;PMS5003;60257;42.638;23.376;2024-02-16T02:31:39;36.25;32.00;19.00
72307;PMS5003;60257;42.638;23.376;2024-02-16T02:33:40;39.75;37.50;20.00
72307;PMS5003;60257;42.638;23.376;2024-02-16T02:35:40;31.50;30.50;19.25
72307;PMS5003;60257;42.638;23.376;2024-02-16T02:37:41;38.50;33.75;21.00
72307;PMS5003;60257;42.638;23.376;2024-02-16T02:39:41;49.75;42.00;24.25
72307;PMS5003;60257;42.638;23.376;2024-02-16T02:41:42;41.00;37.00;21.75
72307;PMS5003;60257;42.638;23.376;2024-02-16T02:43:43;45.25;40.25;21.25
72307;PMS5003;60257;42.638;23.376;2024-02-16T02:45:43;38.75;37.25;22.00
72307;PMS5003;60257;42.638;23.376;2024-02-16T02:47:44;43.50;39.00;24.00
72307;PMS5003;60257;42.638;23.376;2024-02-16T02:49:46;42.25;39.00;21.75
72307;PMS5003;60257;42.638;23.376;2024-02-16T02:51:46;38.00;33.75;20.75
72307;PMS5003;60257;42.638;23.376;2024-02-16T02:53:47;33.75;32.00;20.00
72307;PMS5003;60257;42.638;23.376;2024-02-16T02:55:47;38.25;37.00;21.25
72307;PMS5003;60257;42.638;23.376;2024-02-16T02:57:47;30.75;28.00;15.25
72307;PMS5003;60257;42.638;23.376;2024-02-16T02:59:48;26.75;24.25;13.25
72307;PMS5003;60257;42.638;23.376;2024-02-16T03:01:48;27.75;26.00;14.75
72307;PMS5003;60257;42.638;23.376;2024-02-16T03:03:48;28.75;27.50;15.50
72307;PMS5003;60257;42.638;23.376;2024-02-16T03:05:49;29.25;28.50;17.75
72307;PMS5003;60257;42.638;23.376;2024-02-16T03:07:50;33.50;32.75;17.25
72307;PMS5003;60257;42.638;23.376;2024-02-16T03:09:51;23.25;22.25;15.50
72307;PMS5003;60257;42.638;23.376;2024-02-16T03:11:51;28.50;27.00;17.00
72307;PMS5003;60257;42.638;23.376;2024-02-16T03:13:51;27.75;25.75;15.00
72307;PMS5003;60257;42.638;23.376;2024-02-16T03:15:52;29.50;26.50;14.00
72307;PMS5003;60257;42.638;23.376;2024-02-16T03:17:52;30.25;29.25;16.00
72307;PMS5003;60257;42.638;23.376;2024-02-16T03:19:53;27.25;24.75;12.50
72307;PMS5003;60257;42.638;23.376;2024-02-16T03:21:53;31.25;27.00;17.00
72307;PMS5003;60257;42.638;23.376;2024-02-16T03:23:53;29.25;26.00;16.00
72307;PMS5003;60257;42.638;23.376;2024-02-16T03:25:54;27.00;25.75;14.50
72307;PMS5003;60257;42.638;23.376;2024-02-16T03:27:54;25.00;24.75;14.00
72307;PMS5003;60257;42.638;23.376;2024-02-16T03:29:55;32.50;29.75;18.25
72307;PMS5003;60257;42.638;23.376;2024-02-16T03:31:55;33.75;32.25;18.00
72307;PMS5003;60257;42.638;23.376;2024-02-16T03:33:56;36.75;30.00;17.75
72307;PMS5003;60257;42.638;23.376;2024-02-16T03:35:56;28.75;26.00;16.75
72307;PMS5003;60257;42.638;23.376;2024-02-16T03:37:56;30.00;29.00;14.25
72307;PMS5003;60257;42.638;23.376;2024-02-16T03:39:57;30.75;27.75;13.50
72307;PMS5003;60257;42.638;23.376;2024-02-16T03:41:57;29.25;27.75;17.00
72307;PMS5003;60257;42.638;23.376;2024-02-16T03:43:58;30.25;26.00;17.00
72307;PMS5003;60257;42.638;23.376;2024-02-16T03:45:58;32.50;29.75;14.50
72307;PMS5003;60257;42.638;23.376;2024-02-16T03:47:59;23.25;20.75;12.25
72307;PMS5003;60257;42.638;23.376;2024-02-16T03:49:59;27.50;25.75;14.50
72307;PMS5003;60257;42.638;23.376;2024-02-16T03:51:59;30.50;28.00;17.50
72307;PMS5003;60257;42.638;23.376;2024-02-16T03:54:00;27.50;25.25;14.00
72307;PMS5003;60257;42.638;23.376;2024-02-16T03:56:00;30.50;28.25;17.00
72307;PMS5003;60257;42.638;23.376;2024-02-16T03:58:01;24.00;22.00;12.50
72307;PMS5003;60257;42.638;23.376;2024-02-16T04:00:04;30.50;29.00;17.00
72307;PMS5003;60257;42.638;23.376;2024-02-16T04:02:06;29.00;26.25;17.00
72307;PMS5003;60257;42.638;23.376;2024-02-16T04:04:06;33.75;29.50;17.25
72307;PMS5003;60257;42.638;23.376;2024-02-16T04:06:07;29.50;25.00;13.00
72307;PMS5003;60257;42.638;23.376;2024-02-16T04:08:08;26.00;23.25;15.75
72307;PMS5003;60257;42.638;23.376;2024-02-16T04:10:08;25.00;23.50;13.75
72307;PMS5003;60257;42.638;23.376;2024-02-16T04:12:09;29.25;29.00;16.25
72307;PMS5003;60257;42.638;23.376;2024-02-16T04:14:10;25.00;21.50;15.50
72307;PMS5003;60257;42.638;23.376;2024-02-16T04:16:11;27.00;25.00;14.00
72307;PMS5003;60257;42.638;23.376;2024-02-16T04:18:11;30.25;26.25;17.00
72307;PMS5003;60257;42.638;23.376;2024-02-16T04:20:12;33.25;29.75;17.00
72307;PMS5003;60257;42.638;23.376;2024-02-16T04:22:14;21.00;18.00;11.25
72307;PMS5003;60257;42.638;23.376;2024-02-16T04:24:15;34.00;33.00;19.50
72307;PMS5003;60257;42.638;23.376;2024-02-16T04:26:15;31.25;27.00;13.25
72307;PMS5003;60257;42.638;23.376;2024-02-16T04:28:15;37.25;34.00;18.75
72307;PMS5003;60257;42.638;23.376;2024-02-16T04:30:18;33.75;31.75;19.75
72307;PMS5003;60257;42.638;23.376;2024-02-16T04:32:18;37.50;34.50;20.25
72307;PMS5003;60257;42.638;23.376;2024-02-16T04:34:18;39.50;37.25;24.00
72307;PMS5003;60257;42.638;23.376;2024-02-16T04:36:19;40.50;34.25;21.00
72307;PMS5003;60257;42.638;23.376;2024-02-16T04:38:19;35.00;33.25;21.00
72307;PMS5003;60257;42.638;23.376;2024-02-16T04:40:19;36.00;33.75;19.00
72307;PMS5003;60257;42.638;23.376;2024-02-16T04:42:20;42.00;38.50;20.00
72307;PMS5003;60257;42.638;23.376;2024-02-16T04:44:20;36.75;33.00;17.00
72307;PMS5003;60257;42.638;23.376;2024-02-16T04:46:21;31.75;27.75;16.00
72307;PMS5003;60257;42.638;23.376;2024-02-16T04:48:21;35.25;31.50;19.75
72307;PMS5003;60257;42.638;23.376;2024-02-16T04:50:22;34.25;32.50;19.00
72307;PMS5003;60257;42.638;23.376;2024-02-16T04:52:22;39.25;34.25;21.50
72307;PMS5003;60257;42.638;23.376;2024-02-16T04:54:23;40.75;36.00;22.75
72307;PMS5003;60257;42.638;23.376;2024-02-16T04:56:23;40.00;33.75;21.25
72307;PMS5003;60257;42.638;23.376;2024-02-16T04:58:24;46.00;40.75;27.25
72307;PMS5003;60257;42.638;23.376;2024-02-16T05:00:24;42.00;35.25;23.50
72307;PMS5003;60257;42.638;23.376;2024-02-16T05:02:24;41.50;36.50;21.00
72307;PMS5003;60257;42.638;23.376;2024-02-16T05:04:25;44.75;40.25;22.25
72307;PMS5003;60257;42.638;23.376;2024-02-16T05:06:25;53.00;41.75;28.75
72307;PMS5003;60257;42.638;23.376;2024-02-16T05:08:25;44.25;39.75;24.50
72307;PMS5003;60257;42.638;23.376;2024-02-16T05:10:26;57.25;42.25;22.75
72307;PMS5003;60257;42.638;23.376;2024-02-16T05:12:26;44.75;41.25;27.00
72307;PMS5003;60257;42.638;23.376;2024-02-16T05:14:26;39.25;34.75;27.00
72307;PMS5003;60257;42.638;23.376;2024-02-16T05:16:28;39.50;35.75;23.00
72307;PMS5003;60257;42.638;23.376;2024-02-16T05:18:28;35.50;33.00;21.00
72307;PMS5003;60257;42.638;23.376;2024-02-16T05:20:29;35.00;31.50;17.75
72307;PMS5003;60257;42.638;23.376;2024-02-16T05:22:29;38.75;38.25;25.25
72307;PMS5003;60257;42.638;23.376;2024-02-16T05:24:29;38.50;36.50;23.50
72307;PMS5003;60257;42.638;23.376;2024-02-16T05:26:30;38.00;33.00;20.25
72307;PMS5003;60257;42.638;23.376;2024-02-16T05:28:30;27.75;24.25;17.75
72307;PMS5003;60257;42.638;23.376;2024-02-16T05:30:30;30.00;26.50;16.00
72307;PMS5003;60257;42.638;23.376;2024-02-16T05:32:31;33.25;31.00;19.00
72307;PMS5003;60257;42.638;23.376;2024-02-16T05:34:32;30.00;26.50;17.00
72307;PMS5003;60257;42.638;23.376;2024-02-16T05:36:37;31.00;31.00;21.75
72307;PMS5003;60257;42.638;23.376;2024-02-16T05:38:38;45.00;38.50;23.25
72307;PMS5003;60257;42.638;23.376;2024-02-16T05:40:43;41.50;38.50;26.50
72307;PMS5003;60257;42.638;23.376;2024-02-16T05:42:53;49.00;43.50;28.00
72307;PMS5003;60257;42.638;23.376;2024-02-16T05:44:54;62.75;51.25;34.75
72307;PMS5003;60257;42.638;23.376;2024-02-16T05:46:54;58.50;47.25;31.25
72307;PMS5003;60257;42.638;23.376;2024-02-16T05:48:55;36.75;34.75;21.50
72307;PMS5003;60257;42.638;23.376;2024-02-16T05:51:00;56.75;47.25;30.00
72307;PMS5003;60257;42.638;23.376;2024-02-16T05:53:00;43.50;40.50;29.25
72307;PMS5003;60257;42.638;23.376;2024-02-16T05:55:01;43.75;40.25;26.00
72307;PMS5003;60257;42.638;23.376;2024-02-16T05:57:01;41.75;38.50;28.00
72307;PMS5003;60257;42.638;23.376;2024-02-16T05:59:04;44.50;39.75;27.25
72307;PMS5003;60257;42.638;23.376;2024-02-16T06:01:05;45.50;41.00;28.75
72307;PMS5003;60257;42.638;23.376;2024-02-16T06:03:05;55.25;45.75;29.25
72307;PMS5003;60257;42.638;23.376;2024-02-16T06:05:07;48.00;42.75;25.75
72307;PMS5003;60257;42.638;23.376;2024-02-16T06:07:07;51.50;44.75;29.00
72307;PMS5003;60257;42.638;23.376;2024-02-16T06:09:08;57.75;49.50;30.25
72307;PMS5003;60257;42.638;23.376;2024-02-16T06:11:08;60.25;47.50;31.50
72307;PMS5003;60257;42.638;23.376;2024-02-16T06:13:09;66.50;54.75;33.75
72307;PMS5003;60257;42.638;23.376;2024-02-16T06:15:09;61.00;47.00;29.00
72307;PMS5003;60257;42.638;23.376;2024-02-16T06:17:10;61.50;50.25;30.25
72307;PMS5003;60257;42.638;23.376;2024-02-16T06:19:10;59.50;49.25;32.00
72307;PMS5003;60257;42.638;23.376;2024-02-16T06:21:10;63.25;52.00;31.50
72307;PMS5003;60257;42.638;23.376;2024-02-16T06:23:11;61.25;50.75;30.25
72307;PMS5003;60257;42.638;23.376;2024-02-16T06:25:11;65.75;52.50;34.50
72307;PMS5003;60257;42.638;23.376;2024-02-16T06:27:12;68.50;56.00;33.00
72307;PMS5003;60257;42.638;23.376;2024-02-16T06:29:12;59.75;48.25;29.75
72307;PMS5003;60257;42.638;23.376;2024-02-16T06:31:13;63.25;50.75;30.25
72307;PMS5003;60257;42.638;23.376;2024-02-16T06:33:14;62.50;53.25;31.00
72307;PMS5003;60257;42.638;23.376;2024-02-16T06:35:15;67.25;52.75;34.00
72307;PMS5003;60257;42.638;23.376;2024-02-16T06:37:15;53.50;46.50;29.00
72307;PMS5003;60257;42.638;23.376;2024-02-16T06:39:16;51.25;43.75;26.00
72307;PMS5003;60257;42.638;23.376;2024-02-16T06:41:18;44.50;40.50;26.25
72307;PMS5003;60257;42.638;23.376;2024-02-16T06:43:18;51.75;45.25;27.00
72307;PMS5003;60257;42.638;23.376;2024-02-16T06:45:19;53.25;42.00;26.25
72307;PMS5003;60257;42.638;23.376;2024-02-16T06:47:20;52.00;42.25;25.75
72307;PMS5003;60257;42.638;23.376;2024-02-16T06:49:20;59.00;46.75;30.00
72307;PMS5003;60257;42.638;23.376;2024-02-16T06:51:21;57.25;47.25;33.50
72307;PMS5003;60257;42.638;23.376;2024-02-16T06:53:21;46.50;40.75;25.00
72307;PMS5003;60257;42.638;23.376;2024-02-16T06:55:21;41.75;34.50;20.25
72307;PMS5003;60257;42.638;23.376;2024-02-16T06:57:22;40.75;38.50;25.50
72307;PMS5003;60257;42.638;23.376;2024-02-16T06:59:22;44.75;39.50;26.00
72307;PMS5003;60257;42.638;23.376;2024-02-16T07:01:23;42.25;39.50;25.25
72307;PMS5003;60257;42.638;23.376;2024-02-16T07:03:23;33.00;32.50;21.00
72307;PMS5003;60257;42.638;23.376;2024-02-16T07:05:24;40.00;38.25;27.00
72307;PMS5003;60257;42.638;23.376;2024-02-16T07:07:24;38.75;37.00;20.00
72307;PMS5003;60257;42.638;23.376;2024-02-16T07:09:24;49.25;42.50;26.75
72307;PMS5003;60257;42.638;23.376;2024-02-16T07:11:25;48.50;41.75;25.50
72307;PMS5003;60257;42.638;23.376;2024-02-16T07:13:25;47.25;42.00;26.25
72307;PMS5003;60257;42.638;23.376;2024-02-16T07:15:25;55.25;43.00;25.00
72307;PMS5003;60257;42.638;23.376;2024-02-16T07:17:26;52.25;42.75;28.00
72307;PMS5003;60257;42.638;23.376;2024-02-16T07:19:27;39.75;36.25;22.00
72307;PMS5003;60257;42.638;23.376;2024-02-16T07:21:28;49.50;43.50;25.75
72307;PMS5003;60257;42.638;23.376;2024-02-16T07:23:29;45.75;40.75;23.75
72307;PMS5003;60257;42.638;23.376;2024-02-16T07:25:29;48.25;41.75;24.00
72307;PMS5003;60257;42.638;23.376;2024-02-16T07:27:30;56.50;45.25;28.00
72307;PMS5003;60257;42.638;23.376;2024-02-16T07:29:30;46.50;40.25;25.75
72307;PMS5003;60257;42.638;23.376;2024-02-16T07:31:34;39.75;38.00;24.75
72307;PMS5003;60257;42.638;23.376;2024-02-16T07:33:35;40.50;35.75;17.75
72307;PMS5003;60257;42.638;23.376;2024-02-16T07:35:35;46.50;38.75;24.25
72307;PMS5003;60257;42.638;23.376;2024-02-16T07:37:38;47.25;39.75;26.25
72307;PMS5003;60257;42.638;23.376;2024-02-16T07:39:38;50.25;41.25;25.50
72307;PMS5003;60257;42.638;23.376;2024-02-16T07:41:39;51.75;41.75;25.00
72307;PMS5003;60257;42.638;23.376;2024-02-16T07:43:39;48.00;41.50;25.00
72307;PMS5003;60257;42.638;23.376;2024-02-16T07:45:40;49.50;40.25;25.50
72307;PMS5003;60257;42.638;23.376;2024-02-16T07:47:41;45.75;40.00;24.00
72307;PMS5003;60257;42.638;23.376;2024-02-16T07:49:41;50.75;41.50;25.50
72307;PMS5003;60257;42.638;23.376;2024-02-16T07:51:42;48.25;40.50;22.25
72307;PMS5003;60257;42.638;23.376;2024-02-16T07:53:42;41.75;39.25;24.50
72307;PMS5003;60257;42.638;23.376;2024-02-16T07:55:44;44.25;39.25;24.00
72307;PMS5003;60257;42.638;23.376;2024-02-16T07:57:45;34.25;33.25;23.50
72307;PMS5003;60257;42.638;23.376;2024-02-16T07:59:45;40.00;36.75;24.25
72307;PMS5003;60257;42.638;23.376;2024-02-16T08:01:45;49.25;40.25;27.25
72307;PMS5003;60257;42.638;23.376;2024-02-16T08:03:46;53.75;41.25;25.50
72307;PMS5003;60257;42.638;23.376;2024-02-16T08:05:46;45.50;39.50;22.00
72307;PMS5003;60257;42.638;23.376;2024-02-16T08:07:47;52.25;42.50;26.25
72307;PMS5003;60257;42.638;23.376;2024-02-16T08:09:47;47.00;40.75;26.25
72307;PMS5003;60257;42.638;23.376;2024-02-16T08:11:48;36.00;35.50;24.50
72307;PMS5003;60257;42.638;23.376;2024-02-16T08:13:48;44.00;40.00;27.00
72307;PMS5003;60257;42.638;23.376;2024-02-16T08:15:49;54.00;42.50;27.00
72307;PMS5003;60257;42.638;23.376;2024-02-16T08:17:52;46.25;39.75;24.00
72307;PMS5003;60257;42.638;23.376;2024-02-16T08:19:52;48.00;42.00;26.00
72307;PMS5003;60257;42.638;23.376;2024-02-16T08:21:56;50.75;43.75;27.25
72307;PMS5003;60257;42.638;23.376;2024-02-16T08:23:56;27.75;25.50;12.00
72307;PMS5003;60257;42.638;23.376;2024-02-16T08:25:57;40.00;37.25;23.25
72307;PMS5003;60257;42.638;23.376;2024-02-16T08:27:57;43.75;38.00;24.00
72307;PMS5003;60257;42.638;23.376;2024-02-16T08:29:58;47.25;38.00;22.00
72307;PMS5003;60257;42.638;23.376;2024-02-16T08:31:59;49.00;39.50;23.75
72307;PMS5003;60257;42.638;23.376;2024-02-16T08:33:59;51.50;42.50;27.00
72307;PMS5003;60257;42.638;23.376;2024-02-16T08:35:59;50.75;42.25;28.25
72307;PMS5003;60257;42.638;23.376;2024-02-16T08:38:00;52.75;42.50;26.25
72307;PMS5003;60257;42.638;23.376;2024-02-16T08:40:00;40.75;38.25;23.50
72307;PMS5003;60257;42.638;23.376;2024-02-16T08:42:01;41.50;38.00;24.50
72307;PMS5003;60257;42.638;23.376;2024-02-16T08:44:03;42.00;38.50;24.00
72307;PMS5003;60257;42.638;23.376;2024-02-16T08:46:04;40.25;37.50;23.50
72307;PMS5003;60257;42.638;23.376;2024-02-16T08:48:04;44.25;35.75;20.00
72307;PMS5003;60257;42.638;23.376;2024-02-16T08:50:05;38.50;35.00;25.00
72307;PMS5003;60257;42.638;23.376;2024-02-16T08:52:06;36.25;35.25;21.25
72307;PMS5003;60257;42.638;23.376;2024-02-16T08:54:06;47.50;39.25;23.75
72307;PMS5003;60257;42.638;23.376;2024-02-16T08:56:10;47.75;38.75;26.00
72307;PMS5003;60257;42.638;23.376;2024-02-16T08:58:13;47.50;41.25;29.50
72307;PMS5003;60257;42.638;23.376;2024-02-16T09:00:13;42.25;38.25;26.75
72307;PMS5003;60257;42.638;23.376;2024-02-16T09:02:16;62.25;51.50;33.50
72307;PMS5003;60257;42.638;23.376;2024-02-16T09:04:16;65.00;52.25;32.50
72307;PMS5003;60257;42.638;23.376;2024-02-16T09:06:16;57.75;47.00;31.50
72307;PMS5003;60257;42.638;23.376;2024-02-16T09:08:17;53.00;44.25;25.00
72307;PMS5003;60257;42.638;23.376;2024-02-16T09:10:18;67.25;53.75;33.75
72307;PMS5003;60257;42.638;23.376;2024-02-16T09:12:18;57.50;45.50;30.00
72307;PMS5003;60257;42.638;23.376;2024-02-16T09:14:18;60.75;49.75;32.75
72307;PMS5003;60257;42.638;23.376;2024-02-16T09:16:19;63.00;50.25;32.00
72307;PMS5003;60257;42.638;23.376;2024-02-16T09:18:20;60.75;50.25;33.00
72307;PMS5003;60257;42.638;23.376;2024-02-16T09:20:20;53.75;44.25;28.00
72307;PMS5003;60257;42.638;23.376;2024-02-16T09:22:22;23.00;19.25;12.00
72307;PMS5003;60257;42.638;23.376;2024-02-16T09:24:22;51.25;42.25;26.50
72307;PMS5003;60257;42.638;23.376;2024-02-16T09:26:25;53.00;44.25;28.00
72307;PMS5003;60257;42.638;23.376;2024-02-16T09:28:30;47.50;41.00;25.00
72307;PMS5003;60257;42.638;23.376;2024-02-16T09:30:30;49.25;39.75;25.75
72307;PMS5003;60257;42.638;23.376;2024-02-16T09:32:32;42.75;38.00;23.50
72307;PMS5003;60257;42.638;23.376;2024-02-16T09:34:32;33.67;32.67;22.33
72307;PMS5003;60257;42.638;23.376;2024-02-16T09:36:33;34.00;32.00;20.00
72307;PMS5003;60257;42.638;23.376;2024-02-16T09:38:35;38.67;37.00;23.00
72307;PMS5003;60257;42.638;23.376;2024-02-16T09:40:36;42.50;36.50;26.00
72307;PMS5003;60257;42.638;23.376;2024-02-16T09:42:37;54.75;44.50;27.25
72307;PMS5003;60257;42.638;23.376;2024-02-16T09:44:38;43.25;37.75;27.00
72307;PMS5003;60257;42.638;23.376;2024-02-16T09:46:39;53.00;43.50;27.00
72307;PMS5003;60257;42.638;23.376;2024-02-16T09:48:40;52.75;43.50;27.00
72307;PMS5003;60257;42.638;23.376;2024-02-16T09:50:41;51.75;42.00;25.00
72307;PMS5003;60257;42.638;23.376;2024-02-16T09:52:42;52.50;42.75;25.75
72307;PMS5003;60257;42.638;23.376;2024-02-16T09:54:47;45.33;39.00;25.67
72307;PMS5003;60257;42.638;23.376;2024-02-16T09:56:48;48.00;37.50;24.25
72307;PMS5003;60257;42.638;23.376;2024-02-16T09:58:48;39.67;36.00;21.33
72307;PMS5003;60257;42.638;23.376;2024-02-16T10:00:52;40.00;34.00;20.33
72307;PMS5003;60257;42.638;23.376;2024-02-16T10:02:53;31.67;29.67;19.00
72307;PMS5003;60257;42.638;23.376;2024-02-16T10:04:53;34.00;32.00;20.00
72307;PMS5003;60257;42.638;23.376;2024-02-16T10:06:54;34.67;32.33;20.00
72307;PMS5003;60257;42.638;23.376;2024-02-16T10:08:54;31.00;27.33;18.67
72307;PMS5003;60257;42.638;23.376;2024-02-16T10:11:03;25.00;22.33;14.00
72307;PMS5003;60257;42.638;23.376;2024-02-16T10:13:05;22.00;21.00;14.00
72307;PMS5003;60257;42.638;23.376;2024-02-16T10:15:05;26.00;25.00;14.67
72307;PMS5003;60257;42.638;23.376;2024-02-16T10:17:06;24.33;22.33;16.00
72307;PMS5003;60257;42.638;23.376;2024-02-16T10:19:09;37.33;27.33;15.33
72307;PMS5003;60257;42.638;23.376;2024-02-16T10:21:12;28.00;27.00;18.00
72307;PMS5003;60257;42.638;23.376;2024-02-16T10:23:12;28.00;27.00;15.33
72307;PMS5003;60257;42.638;23.376;2024-02-16T10:25:13;25.67;23.67;14.00
72307;PMS5003;60257;42.638;23.376;2024-02-16T10:27:14;17.00;15.67;13.00
72307;PMS5003;60257;42.638;23.376;2024-02-16T10:29:20;23.67;22.00;13.67
72307;PMS5003;60257;42.638;23.376;2024-02-16T10:31:24;25.67;23.33;15.33
72307;PMS5003;60257;42.638;23.376;2024-02-16T10:33:29;22.33;22.33;13.00
72307;PMS5003;60257;42.638;23.376;2024-02-16T10:35:35;24.00;21.67;13.33
72307;PMS5003;60257;42.638;23.376;2024-02-16T10:37:37;23.67;22.67;13.00
72307;PMS5003;60257;42.638;23.376;2024-02-16T10:39:37;18.33;15.33;10.00
72307;PMS5003;60257;42.638;23.376;2024-02-16T10:41:42;24.33;23.33;16.00
72307;PMS5003;60257;42.638;23.376;2024-02-16T10:43:45;19.00;18.33;11.67
72307;PMS5003;60257;42.638;23.376;2024-02-16T10:45:48;30.33;26.00;15.33
72307;PMS5003;60257;42.638;23.376;2024-02-16T10:47:52;26.00;24.33;13.67
72307;PMS5003;60257;42.638;23.376;2024-02-16T10:49:53;24.67;24.33;13.00
72307;PMS5003;60257;42.638;23.376;2024-02-16T10:51:54;26.00;23.67;14.00
72307;PMS5003;60257;42.638;23.376;2024-02-16T10:53:57;23.33;23.00;13.67
72307;PMS5003;60257;42.638;23.376;2024-02-16T10:56:00;24.67;20.00;12.67
72307;PMS5003;60257;42.638;23.376;2024-02-16T10:58:01;25.00;22.00;14.33
72307;PMS5003;60257;42.638;23.376;2024-02-16T11:00:06;24.67;24.67;15.00
72307;PMS5003;60257;42.638;23.376;2024-02-16T11:02:09;24.00;21.67;15.00
72307;PMS5003;60257;42.638;23.376;2024-02-16T11:04:19;21.00;21.00;13.00
72307;PMS5003;60257;42.638;23.376;2024-02-16T11:06:21;24.33;23.33;15.00
72307;PMS5003;60257;42.638;23.376;2024-02-16T11:08:23;24.67;21.33;15.00